Time;durP1;ratioP1;P1;durP2;ratioP2;P2;SDS_P1;SDS_P2;PMS_P1;PMS_P2;Temp;Humidity;BMP_temperature;BMP_pressure;BME280_temperature;BME280_humidity;BME280_pressure;Samples;Min_cycle;Max_cycle;Signal;HPM_P1;HPM_P2
2022/11/05 00:10:30;;;;;;;2.38;1.27;;;4.80;99.90;;;;;;5047678;28;20048;-82
2022/11/05 00:18:28;;;;;;;2.28;1.27;;;4.80;99.90;;;;;;5042776;28;20486;-81
2022/11/05 00:20:53;;;;;;;3.75;1.77;;;4.80;99.90;;;;;;5039565;28;20040;-81
2022/11/05 00:26:10;;;;;;;2.65;1.10;;;4.70;99.90;;;;;;5036557;28;20471;-81
2022/11/05 00:28:36;;;;;;;1.60;1.08;;;5.70;99.90;;;;;;5035937;28;20472;-81
2022/11/05 00:31:04;;;;;;;5.15;1.40;;;4.70;99.90;;;;;;5036166;28;20049;-81
2022/11/05 00:33:31;;;;;;;2.78;1.08;;;4.70;99.90;;;;;;5054023;28;20089;-82
2022/11/05 00:35:57;;;;;;;3.65;1.52;;;4.80;99.90;;;;;;5033904;28;20112;-82
2022/11/05 00:38:23;;;;;;;4.82;1.60;;;4.80;99.90;;;;;;5036398;28;20111;-82
2022/11/05 00:40:49;;;;;;;3.92;1.50;;;4.80;99.90;;;;;;5036219;28;20037;-82
2022/11/05 00:46:00;;;;;;;2.05;1.15;;;4.80;99.90;;;;;;5031425;28;20040;-82
2022/11/05 00:51:09;;;;;;;3.50;0.90;;;4.80;99.90;;;;;;5022891;28;20490;-81
2022/11/05 00:53:35;;;;;;;3.60;1.17;;;4.80;99.90;;;;;;5038905;28;20123;-81
2022/11/05 00:56:01;;;;;;;2.33;1.00;;;5.30;99.90;;;;;;5031112;28;20119;-81
2022/11/05 00:58:28;;;;;;;3.83;1.10;;;4.80;99.90;;;;;;5036122;28;20064;-81
2022/11/05 01:00:58;;;;;;;2.63;1.30;;;5.50;99.90;;;;;;5048454;28;20119;-81
2022/11/05 01:03:27;;;;;;;1.52;1.10;;;4.80;99.90;;;;;;5055758;28;20028;-81
2022/11/05 01:05:58;;;;;;;1.83;0.90;;;4.80;99.90;;;;;;5043811;28;20434;-81
2022/11/05 01:08:26;;;;;;;1.27;0.88;;;4.70;99.90;;;;;;5019406;28;20040;-81
2022/11/05 01:10:54;;;;;;;1.65;0.93;;;4.70;99.90;;;;;;5035215;28;20049;-81
2022/11/05 01:13:24;;;;;;;2.42;1.50;;;4.60;99.90;;;;;;5038964;28;20128;-81
2022/11/05 01:15:50;;;;;;;2.15;0.88;;;4.60;99.90;;;;;;5072945;28;20049;-81
2022/11/05 01:18:18;;;;;;;1.48;0.90;;;4.60;99.90;;;;;;5073808;28;20142;-81
2022/11/05 01:20:44;;;;;;;1.15;0.80;;;4.50;99.90;;;;;;5055693;28;20036;-81
2022/11/05 01:23:10;;;;;;;1.65;0.82;;;4.50;99.90;;;;;;5051264;28;20116;-80
2022/11/05 01:25:35;;;;;;;1.90;0.88;;;5.70;99.90;;;;;;5036077;28;20416;-83
2022/11/05 01:28:02;;;;;;;2.58;1.10;;;4.40;99.90;;;;;;5036099;28;20041;-83
2022/11/05 01:30:28;;;;;;;1.15;0.70;;;5.80;99.90;;;;;;5025604;28;20045;-83
2022/11/05 01:32:54;;;;;;;2.05;1.00;;;5.10;99.90;;;;;;5038759;28;20044;-83
2022/11/05 01:35:20;;;;;;;3.22;1.10;;;4.30;99.90;;;;;;5027742;28;20056;-83
2022/11/05 01:37:46;;;;;;;1.75;0.98;;;4.30;99.90;;;;;;5010850;28;20044;-82
2022/11/05 01:40:18;;;;;;;1.20;0.73;;;4.50;99.90;;;;;;5037766;28;20044;-81
2022/11/05 01:42:44;;;;;;;1.27;0.43;;;4.30;99.90;;;;;;5022532;28;20479;-80
2022/11/05 01:45:11;;;;;;;1.65;0.68;;;5.10;99.90;;;;;;5057156;28;20544;-81
2022/11/05 01:48:01;;;;;;;1.45;1.13;;;4.30;99.90;;;;;;5048894;28;20048;-81
2022/11/05 01:50:42;;;;;;;0.65;0.57;;;4.30;99.90;;;;;;5039384;28;20193;-81
2022/11/05 01:53:19;;;;;;;2.70;0.88;;;5.10;99.90;;;;;;5055632;28;20051;-80
2022/11/05 01:56:08;;;;;;;1.13;0.70;;;4.30;99.90;;;;;;5058685;28;20036;-81
2022/11/05 01:58:40;;;;;;;2.47;0.82;;;4.30;99.90;;;;;;5037515;28;20060;-81
2022/11/05 02:01:06;;;;;;;0.73;0.57;;;4.40;99.90;;;;;;5058667;28;20044;-81
2022/11/05 02:03:32;;;;;;;3.65;1.60;;;4.50;99.90;;;;;;5028427;28;20056;-81
2022/11/05 02:05:59;;;;;;;1.15;0.80;;;4.70;99.90;;;;;;5038505;28;20127;-81
2022/11/05 02:08:55;;;;;;;0.65;0.65;;;4.60;99.90;;;;;;5040035;28;20040;-81
2022/11/05 02:11:21;;;;;;;2.92;0.80;;;4.60;99.90;;;;;;5042123;28;20078;-81
2022/11/05 02:13:48;;;;;;;1.60;0.50;;;5.30;99.90;;;;;;5057439;28;20087;-81
2022/11/05 02:16:40;;;;;;;1.13;0.52;;;4.70;99.90;;;;;;5058875;28;20044;-81
2022/11/05 02:19:37;;;;;;;3.25;0.88;;;4.70;99.90;;;;;;5055171;28;20071;-81
2022/11/05 02:22:30;;;;;;;2.53;0.70;;;4.70;99.90;;;;;;5022018;28;20065;-81
2022/11/05 02:25:04;;;;;;;3.65;0.90;;;4.60;99.90;;;;;;5021920;28;20056;-81
2022/11/05 02:28:07;;;;;;;2.58;0.80;;;5.70;99.90;;;;;;5049269;28;20066;-81
2022/11/05 02:30:37;;;;;;;1.27;0.77;;;4.80;99.90;;;;;;5001892;28;20105;-82
2022/11/05 02:33:10;;;;;;;2.80;1.00;;;4.80;99.90;;;;;;5058403;28;20394;-82
2022/11/05 02:35:59;;;;;;;1.30;0.88;;;4.80;99.90;;;;;;5041844;28;20046;-83
2022/11/05 02:38:37;;;;;;;2.03;0.95;;;4.00;99.90;;;;;;5058082;28;20127;-82
2022/11/05 02:41:30;;;;;;;2.13;1.15;;;5.40;99.90;;;;;;5052511;28;20404;-82
2022/11/05 02:44:12;;;;;;;1.70;0.85;;;5.20;99.90;;;;;;5038295;28;20087;-82
2022/11/05 02:46:48;;;;;;;2.55;1.20;;;5.30;99.90;;;;;;5030565;28;20068;-82
2022/11/05 02:49:40;;;;;;;4.05;0.63;;;5.40;99.90;;;;;;5041379;28;20041;-82
2022/11/05 02:52:13;;;;;;;1.52;0.65;;;5.50;99.90;;;;;;5040240;28;20040;-82
2022/11/05 02:54:57;;;;;;;0.85;0.50;;;6.10;99.90;;;;;;5041640;28;20036;-83
2022/11/05 02:57:23;;;;;;;1.05;0.75;;;5.60;99.90;;;;;;5058364;28;20044;-82
2022/11/05 02:59:58;;;;;;;1.50;0.57;;;5.60;99.90;;;;;;5041567;28;20394;-82
2022/11/05 03:02:24;;;;;;;1.00;0.55;;;5.90;99.90;;;;;;5029044;28;20506;-82
2022/11/05 03:04:50;;;;;;;2.25;0.80;;;5.90;99.90;;;;;;5057860;28;20408;-83
2022/11/05 03:07:57;;;;;;;3.15;0.80;;;5.50;99.90;;;;;;5041359;28;20037;-83
2022/11/05 03:10:40;;;;;;;3.55;0.88;;;5.50;99.90;;;;;;4997473;28;20046;-83
2022/11/05 03:13:20;;;;;;;0.43;0.32;;;5.50;99.90;;;;;;4984378;28;20061;-83
2022/11/05 03:16:28;;;;;;;0.52;0.40;;;5.50;99.90;;;;;;5023688;28;20101;-84
2022/11/05 03:19:16;;;;;;;1.40;0.77;;;5.40;99.90;;;;;;5014215;28;20052;-83
2022/11/05 03:21:58;;;;;;;0.88;0.55;;;5.40;99.90;;;;;;5020692;28;20448;-83
2022/11/05 03:24:34;;;;;;;0.85;0.70;;;5.60;99.90;;;;;;5043121;28;20075;-83
2022/11/05 03:27:11;;;;;;;0.28;0.25;;;5.50;99.90;;;;;;5033249;28;20037;-83
2022/11/05 03:29:49;;;;;;;3.38;1.20;;;5.50;99.90;;;;;;5042932;28;20166;-83
2022/11/05 03:32:19;;;;;;;1.17;0.70;;;5.50;99.90;;;;;;5037123;28;20041;-84
2022/11/05 03:34:51;;;;;;;1.83;0.70;;;5.50;99.90;;;;;;5052404;28;20037;-83
2022/11/05 03:37:19;;;;;;;1.00;0.70;;;5.50;99.90;;;;;;5051994;28;20044;-83
2022/11/05 03:39:53;;;;;;;1.55;0.93;;;5.50;99.90;;;;;;5057545;28;20037;-83
2022/11/05 03:42:24;;;;;;;2.45;0.80;;;5.50;99.90;;;;;;5074730;28;20048;-82
2022/11/05 03:44:55;;;;;;;1.73;0.80;;;5.50;99.90;;;;;;5048422;28;20463;-82
2022/11/05 03:47:35;;;;;;;3.13;0.85;;;5.60;99.90;;;;;;5040776;28;20044;-83
2022/11/05 03:50:24;;;;;;;0.65;0.52;;;6.90;99.90;;;;;;5023561;28;20052;-82
2022/11/05 03:52:58;;;;;;;1.77;1.00;;;5.80;99.90;;;;;;5048097;28;20045;-82
2022/11/05 03:55:34;;;;;;;2.35;0.93;;;5.90;99.90;;;;;;5054036;28;20068;-82
2022/11/05 03:58:03;;;;;;;2.87;1.07;;;5.90;99.90;;;;;;5040492;28;20047;-81
2022/11/05 04:00:28;;;;;;;2.17;0.95;;;5.90;99.90;;;;;;5037363;28;20051;-82
2022/11/05 04:02:54;;;;;;;1.35;1.00;;;5.90;99.90;;;;;;5020084;28;20037;-82
2022/11/05 04:05:20;;;;;;;0.93;0.55;;;5.80;99.90;;;;;;5021869;28;20037;-81
2022/11/05 04:13:22;;;;;;;1.40;1.10;;;5.70;99.90;;;;;;5038183;28;20049;-82
2022/11/05 04:13:31;;;;;;;2.85;1.00;;;5.70;99.90;;;;;;5053313;28;20052;-82
2022/11/05 04:18:42;;;;;;;4.88;1.50;;;5.60;99.90;;;;;;5022667;28;20049;-82
2022/11/05 04:24:09;;;;;;;1.50;1.08;;;5.70;99.90;;;;;;5044021;28;20049;-82
2022/11/05 04:26:42;;;;;;;1.35;1.23;;;5.70;99.90;;;;;;5022891;28;20459;-82
2022/11/05 04:31:53;;;;;;;3.60;0.77;;;5.60;99.90;;;;;;5036336;28;20047;-83
2022/11/05 04:34:20;;;;;;;8.20;1.23;;;6.00;99.90;;;;;;5021117;28;20115;-82
2022/11/05 04:36:50;;;;;;;0.77;0.50;;;5.60;99.90;;;;;;5020793;28;20376;-82
2022/11/05 04:39:17;;;;;;;0.82;0.70;;;5.90;99.90;;;;;;5019712;28;20083;-83
2022/11/05 04:41:46;;;;;;;4.43;0.90;;;5.90;99.90;;;;;;5003336;28;20044;-82
2022/11/05 04:44:12;;;;;;;1.83;0.95;;;5.50;99.90;;;;;;5043912;28;20120;-83
2022/11/05 04:46:38;;;;;;;1.35;0.77;;;6.00;99.90;;;;;;5019448;28;20095;-83
2022/11/05 04:49:04;;;;;;;2.05;1.00;;;5.50;99.90;;;;;;5029977;28;20052;-83
2022/11/05 04:51:29;;;;;;;2.13;1.00;;;5.70;99.90;;;;;;5036562;28;20376;-83
2022/11/05 04:53:55;;;;;;;3.78;1.15;;;5.90;99.90;;;;;;5038293;28;20075;-83
2022/11/05 04:56:23;;;;;;;1.42;1.02;;;6.00;99.90;;;;;;5039334;28;20127;-84
2022/11/05 04:58:49;;;;;;;2.10;1.35;;;5.60;99.90;;;;;;5037803;28;20044;-84
2022/11/05 05:01:17;;;;;;;3.10;1.45;;;6.00;99.90;;;;;;5035701;28;20090;-82
2022/11/05 05:03:47;;;;;;;3.00;1.33;;;5.70;99.90;;;;;;5036120;28;20474;-82
2022/11/05 05:06:13;;;;;;;2.95;1.40;;;5.70;99.90;;;;;;5038396;28;21670;-82
2022/11/05 05:08:39;;;;;;;3.28;1.70;;;5.70;99.90;;;;;;5035441;28;20053;-81
2022/11/05 05:11:07;;;;;;;5.65;1.83;;;5.80;99.90;;;;;;5019251;28;20066;-81
2022/11/05 05:13:33;;;;;;;2.80;1.52;;;5.80;99.90;;;;;;5048064;28;20048;-81
2022/11/05 05:15:59;;;;;;;3.17;1.83;;;5.80;99.90;;;;;;5041584;28;20044;-82
2022/11/05 05:18:25;;;;;;;6.80;2.25;;;5.90;99.90;;;;;;5042480;28;20051;-84
2022/11/05 05:23:40;;;;;;;3.63;1.90;;;6.10;99.90;;;;;;5026133;28;20041;-83
2022/11/05 05:26:06;;;;;;;5.15;1.92;;;6.20;99.90;;;;;;5039897;28;20045;-84
2022/11/05 05:28:31;;;;;;;4.85;2.05;;;6.30;99.90;;;;;;5038806;28;20044;-83
2022/11/05 05:30:59;;;;;;;2.83;1.88;;;6.90;99.90;;;;;;5015312;28;20427;-83
2022/11/05 05:33:26;;;;;;;4.18;1.88;;;7.40;99.90;;;;;;5034180;28;20056;-82
2022/11/05 05:35:51;;;;;;;4.80;2.15;;;6.60;99.90;;;;;;5039894;28;20405;-82
2022/11/05 05:38:17;;;;;;;4.00;1.80;;;6.70;99.90;;;;;;5029624;28;20123;-82
2022/11/05 05:40:43;;;;;;;5.28;2.28;;;6.70;99.90;;;;;;5040533;28;20456;-82
2022/11/05 05:43:09;;;;;;;3.83;1.65;;;7.60;99.90;;;;;;5057852;28;20063;-82
2022/11/05 05:45:35;;;;;;;2.90;1.70;;;6.60;99.90;;;;;;5022435;28;20041;-81
2022/11/05 05:48:02;;;;;;;3.53;1.90;;;6.60;99.90;;;;;;5028593;28;20045;-81
2022/11/05 05:50:28;;;;;;;4.32;1.73;;;7.60;99.90;;;;;;5022917;28;20076;-81
2022/11/05 05:52:54;;;;;;;5.05;2.10;;;6.50;99.90;;;;;;5048439;28;20076;-81
2022/11/05 05:55:19;;;;;;;4.25;1.90;;;6.40;99.90;;;;;;5038759;28;20476;-82
2022/11/05 05:57:45;;;;;;;4.03;1.80;;;6.40;99.90;;;;;;5042828;28;20098;-81
2022/11/05 06:00:12;;;;;;;3.40;1.75;;;6.30;99.90;;;;;;5042392;28;20036;-81
2022/11/05 06:02:38;;;;;;;4.03;2.10;;;6.20;99.90;;;;;;5042394;28;20043;-81
2022/11/05 06:05:04;;;;;;;3.10;1.88;;;6.70;99.90;;;;;;5040055;28;20550;-81
2022/11/05 06:07:30;;;;;;;4.50;1.77;;;6.10;99.90;;;;;;5054071;28;20045;-82
2022/11/05 06:09:55;;;;;;;3.05;1.90;;;6.10;99.90;;;;;;5039723;28;20048;-82
2022/11/05 06:12:21;;;;;;;3.80;1.83;;;6.10;99.90;;;;;;5035276;28;20127;-83
2022/11/05 06:14:47;;;;;;;2.95;1.67;;;6.00;99.90;;;;;;5022030;28;20102;-82
2022/11/05 06:17:13;;;;;;;4.57;2.53;;;6.80;99.90;;;;;;5047381;28;20040;-82
2022/11/05 06:19:38;;;;;;;4.32;2.00;;;5.90;99.90;;;;;;5040708;28;20033;-82
2022/11/05 06:22:04;;;;;;;3.67;1.90;;;5.90;99.90;;;;;;5045540;28;20056;-82
2022/11/05 06:24:30;;;;;;;3.00;1.67;;;6.70;99.90;;;;;;5028185;28;20048;-81
2022/11/05 06:26:55;;;;;;;3.08;1.80;;;5.80;99.90;;;;;;5037368;28;20036;-81
2022/11/05 06:29:21;;;;;;;4.45;2.15;;;5.70;99.90;;;;;;5038528;28;20517;-81
2022/11/05 06:31:47;;;;;;;4.47;2.03;;;5.70;99.90;;;;;;5035541;28;20048;-81
2022/11/05 06:34:12;;;;;;;2.55;1.88;;;5.70;99.90;;;;;;5041770;28;20040;-81
2022/11/05 06:36:39;;;;;;;3.60;1.95;;;5.70;99.90;;;;;;5008861;28;20575;-81
2022/11/05 06:39:08;;;;;;;5.38;2.13;;;5.70;99.90;;;;;;5022638;28;20119;-81
2022/11/05 06:41:34;;;;;;;3.10;1.85;;;5.90;99.90;;;;;;5057479;28;20055;-81
2022/11/05 06:43:59;;;;;;;3.90;1.73;;;6.70;99.90;;;;;;5035404;28;20040;-81
2022/11/05 06:46:25;;;;;;;4.90;1.88;;;5.70;99.90;;;;;;5020161;28;20033;-81
2022/11/05 06:48:51;;;;;;;6.15;2.17;;;5.70;99.90;;;;;;5036293;28;20044;-81
2022/11/05 06:51:17;;;;;;;5.47;2.20;;;5.70;99.90;;;;;;5041181;28;20036;-81
2022/11/05 06:53:42;;;;;;;3.67;1.95;;;5.70;99.90;;;;;;5057782;28;20378;-81
2022/11/05 06:56:08;;;;;;;3.40;2.08;;;5.90;99.90;;;;;;5054076;28;20044;-81
2022/11/05 06:58:34;;;;;;;3.90;2.38;;;5.70;99.90;;;;;;5040868;28;20516;-81
2022/11/05 07:01:04;;;;;;;4.03;2.10;;;5.80;99.90;;;;;;5024298;28;20068;-82
2022/11/05 07:03:30;;;;;;;5.07;2.20;;;5.80;99.90;;;;;;5056962;28;20041;-82
2022/11/05 07:05:59;;;;;;;3.88;2.30;;;6.00;99.90;;;;;;5049664;28;20047;-82
2022/11/05 07:08:26;;;;;;;2.95;1.80;;;5.80;99.90;;;;;;5055887;28;20055;-82
2022/11/05 07:10:51;;;;;;;4.82;2.03;;;5.90;99.90;;;;;;5041437;28;20066;-82
2022/11/05 07:13:17;;;;;;;4.57;2.42;;;5.90;99.90;;;;;;5040981;28;20045;-81
2022/11/05 07:15:44;;;;;;;5.85;2.58;;;6.00;99.90;;;;;;5057208;28;20502;-82
2022/11/05 07:18:09;;;;;;;3.38;2.08;;;6.20;99.90;;;;;;5023466;28;20043;-81
2022/11/05 07:20:35;;;;;;;4.63;2.58;;;6.00;99.90;;;;;;5056450;28;20040;-81
2022/11/05 07:23:03;;;;;;;4.10;2.13;;;6.10;99.90;;;;;;5040393;28;20103;-81
2022/11/05 07:25:31;;;;;;;4.15;2.03;;;6.20;99.90;;;;;;5056989;28;20124;-82
2022/11/05 07:27:57;;;;;;;5.88;1.98;;;7.00;99.90;;;;;;5046465;28;20041;-81
2022/11/05 07:30:23;;;;;;;3.70;2.42;;;6.20;99.90;;;;;;5020798;28;20052;-82
2022/11/05 07:32:49;;;;;;;3.30;2.03;;;6.50;99.90;;;;;;5040675;28;20044;-83
2022/11/05 07:35:15;;;;;;;6.43;2.65;;;6.70;99.90;;;;;;5037891;28;20050;-83
2022/11/05 07:37:42;;;;;;;4.30;2.35;;;7.20;99.90;;;;;;5015993;28;20065;-83
2022/11/05 07:40:10;;;;;;;4.68;2.13;;;8.00;99.90;;;;;;5028223;28;20036;-83
2022/11/05 07:42:35;;;;;;;5.88;2.58;;;8.80;99.90;;;;;;5056524;28;20041;-83
2022/11/05 07:45:01;;;;;;;4.68;1.90;;;9.50;99.90;;;;;;5056250;28;20044;-83
2022/11/05 07:47:27;;;;;;;3.50;1.90;;;9.90;99.90;;;;;;5056370;28;20454;-83
2022/11/05 07:49:53;;;;;;;6.07;1.83;;;10.50;99.90;;;;;;5051533;28;20044;-83
2022/11/05 07:52:18;;;;;;;4.00;1.60;;;10.70;99.90;;;;;;5053443;28;20039;-83
2022/11/05 07:54:44;;;;;;;3.92;1.52;;;10.80;99.90;;;;;;5038855;28;20040;-83
2022/11/05 07:57:10;;;;;;;2.35;1.38;;;11.50;99.90;;;;;;5037021;28;20045;-84
2022/11/05 07:59:35;;;;;;;2.47;1.45;;;11.90;99.90;;;;;;5035557;28;20394;-83
2022/11/05 08:02:01;;;;;;;7.28;2.30;;;12.30;99.90;;;;;;5038655;28;20043;-84
2022/11/05 08:04:27;;;;;;;3.55;1.65;;;12.60;99.90;;;;;;5034622;28;20032;-83
2022/11/05 08:06:53;;;;;;;4.28;1.45;;;12.90;99.90;;;;;;5023455;28;20123;-84
2022/11/05 08:09:18;;;;;;;6.28;1.80;;;13.00;99.90;;;;;;5037685;28;20123;-83
2022/11/05 08:11:44;;;;;;;4.78;1.70;;;13.10;99.90;;;;;;5038968;28;20048;-83
2022/11/05 08:14:10;;;;;;;1.92;1.27;;;13.90;99.90;;;;;;5039656;28;20186;-84
2022/11/05 08:16:37;;;;;;;2.83;1.48;;;14.00;99.90;;;;;;5047561;28;20124;-83
2022/11/05 08:19:03;;;;;;;2.70;1.50;;;14.50;99.90;;;;;;5036087;28;20119;-84
2022/11/05 08:21:29;;;;;;;2.45;1.30;;;14.60;99.90;;;;;;5044728;28;20040;-84
2022/11/05 08:23:54;;;;;;;1.52;1.10;;;14.60;99.90;;;;;;5035462;28;20037;-84
2022/11/05 08:26:20;;;;;;;1.20;1.10;;;15.10;99.90;;;;;;5031326;28;20120;-84
2022/11/05 08:28:46;;;;;;;2.88;1.30;;;14.70;99.90;;;;;;5052824;28;20045;-84
2022/11/05 08:31:14;;;;;;;3.78;1.30;;;14.60;99.90;;;;;;5019377;28;20045;-83
2022/11/05 08:33:39;;;;;;;3.42;1.73;;;13.90;99.90;;;;;;5045763;28;20047;-83
2022/11/05 08:36:05;;;;;;;1.92;1.30;;;13.30;99.90;;;;;;5035607;28;20036;-83
2022/11/05 08:38:31;;;;;;;3.50;2.20;;;12.80;99.90;;;;;;5027880;28;20033;-81
2022/11/05 08:41:00;;;;;;;2.88;1.55;;;12.50;99.90;;;;;;5051305;28;20044;-82
2022/11/05 08:43:25;;;;;;;4.03;1.45;;;12.20;99.90;;;;;;5022080;28;20477;-82
2022/11/05 08:45:51;;;;;;;2.35;1.20;;;12.10;99.90;;;;;;5035336;28;20183;-82
2022/11/05 08:48:18;;;;;;;3.55;1.65;;;11.80;99.90;;;;;;5031753;28;20128;-82
2022/11/05 08:50:45;;;;;;;2.30;1.75;;;11.70;99.90;;;;;;5030095;28;20044;-82
2022/11/05 08:53:12;;;;;;;3.05;1.35;;;11.70;99.90;;;;;;5028293;28;20045;-82
2022/11/05 08:55:37;;;;;;;1.95;1.27;;;11.70;99.90;;;;;;5035444;28;20087;-83
2022/11/05 08:58:06;;;;;;;2.20;1.30;;;11.70;99.90;;;;;;5045614;28;20064;-83
2022/11/05 09:00:34;;;;;;;2.22;1.25;;;11.90;99.90;;;;;;5046277;28;20514;-83
2022/11/05 09:03:02;;;;;;;4.85;1.60;;;12.10;99.90;;;;;;5048135;28;20041;-83
2022/11/05 09:05:36;;;;;;;2.72;1.80;;;12.40;99.90;;;;;;5049176;28;20530;-83
2022/11/05 09:08:16;;;;;;;4.32;1.75;;;12.50;99.90;;;;;;5024225;28;20077;-83
2022/11/05 09:10:43;;;;;;;4.38;1.80;;;12.50;99.90;;;;;;5034863;28;20049;-82
2022/11/05 09:13:09;;;;;;;4.10;1.60;;;13.10;99.90;;;;;;5049979;28;20112;-82
2022/11/05 09:15:36;;;;;;;2.10;1.45;;;13.70;99.90;;;;;;5036593;28;20049;-82
2022/11/05 09:18:04;;;;;;;5.78;1.92;;;13.90;99.90;;;;;;5045249;28;20123;-82
2022/11/05 09:20:30;;;;;;;6.60;1.27;;;13.80;99.90;;;;;;5022455;28;20032;-82
2022/11/05 09:22:56;;;;;;;4.80;1.40;;;13.50;99.90;;;;;;5036708;28;20041;-82
2022/11/05 09:25:23;;;;;;;3.83;1.60;;;13.10;99.90;;;;;;5051517;28;20044;-82
2022/11/05 09:27:48;;;;;;;5.35;1.92;;;12.90;99.90;;;;;;5051853;28;20044;-83
2022/11/05 09:30:15;;;;;;;3.28;1.50;;;12.60;99.90;;;;;;5032630;28;20059;-84
2022/11/05 09:32:41;;;;;;;1.95;1.13;;;12.50;99.90;;;;;;5048929;28;20060;-84
2022/11/05 09:35:08;;;;;;;4.28;1.30;;;12.50;99.90;;;;;;5030409;28;20048;-84
2022/11/05 09:37:34;;;;;;;2.92;1.48;;;12.70;99.90;;;;;;5053827;28;20044;-83
2022/11/05 09:40:00;;;;;;;3.72;1.58;;;12.90;99.90;;;;;;5044520;28;20040;-84
2022/11/05 09:42:33;;;;;;;3.97;1.25;;;14.20;99.90;;;;;;5014321;28;20124;-84
2022/11/05 09:45:07;;;;;;;2.20;1.30;;;15.50;99.90;;;;;;5048902;28;20070;-82
2022/11/05 09:47:43;;;;;;;2.25;1.38;;;16.40;99.90;;;;;;5050828;28;20044;-82
2022/11/05 09:50:15;;;;;;;2.72;1.35;;;17.40;99.90;;;;;;5055544;28;20044;-82
2022/11/05 09:52:40;;;;;;;3.10;1.30;;;17.40;99.90;;;;;;5053613;28;20119;-82
2022/11/05 09:55:19;;;;;;;3.13;1.60;;;17.90;99.90;;;;;;5036596;28;20135;-82
2022/11/05 09:57:54;;;;;;;2.35;0.98;;;17.70;99.90;;;;;;5053794;28;20106;-82
2022/11/05 10:00:20;;;;;;;1.60;1.30;;;17.80;99.90;;;;;;5051796;28;20052;-83
2022/11/05 10:02:57;;;;;;;1.17;1.00;;;18.00;99.90;;;;;;5026833;28;20510;-84
2022/11/05 10:05:27;;;;;;;1.38;1.13;;;18.40;99.90;;;;;;5053456;28;20037;-83
2022/11/05 10:08:03;;;;;;;2.58;1.30;;;18.30;99.90;;;;;;5023957;28;20076;-83
2022/11/05 10:10:46;;;;;;;3.35;1.27;;;18.90;99.90;;;;;;5058091;28;20101;-84
2022/11/05 10:13:24;;;;;;;3.08;1.70;;;19.40;99.90;;;;;;5049173;28;20513;-84
2022/11/05 10:16:27;;;;;;;2.30;1.40;;;19.40;99.90;;;;;;5040753;28;20402;-84
2022/11/05 10:19:04;;;;;;;2.58;1.45;;;20.00;99.90;;;;;;5058048;28;20032;-82
2022/11/05 10:21:30;;;;;;;5.13;1.65;;;20.50;99.90;;;;;;5057608;28;20047;-83
2022/11/05 10:23:57;;;;;;;1.55;1.10;;;20.50;99.90;;;;;;5028987;28;20041;-82
2022/11/05 10:26:26;;;;;;;0.73;0.73;;;19.90;99.90;;;;;;5058131;28;20386;-82
2022/11/05 10:28:52;;;;;;;1.63;1.05;;;19.50;99.90;;;;;;5049374;28;20123;-82
2022/11/05 10:31:20;;;;;;;1.88;1.02;;;18.30;99.90;;;;;;5048220;28;20041;-82
2022/11/05 10:33:45;;;;;;;1.42;1.08;;;17.40;99.90;;;;;;5056922;28;20036;-83
2022/11/05 10:36:33;;;;;;;1.55;1.05;;;16.70;99.90;;;;;;5056667;28;20119;-84
2022/11/05 10:39:14;;;;;;;3.63;0.98;;;16.00;99.90;;;;;;5048483;28;20530;-84
2022/11/05 10:42:05;;;;;;;2.15;1.20;;;15.60;99.90;;;;;;5040667;28;20040;-84
2022/11/05 10:44:34;;;;;;;3.90;1.25;;;15.50;99.90;;;;;;5049178;28;20098;-84
2022/11/05 10:47:08;;;;;;;1.85;0.90;;;15.50;99.90;;;;;;5056208;28;20404;-84
2022/11/05 10:49:52;;;;;;;3.63;1.23;;;15.60;99.90;;;;;;5039615;28;20402;-84
2022/11/05 10:52:19;;;;;;;0.80;0.75;;;15.70;99.90;;;;;;5048953;28;20040;-84
2022/11/05 10:54:47;;;;;;;2.40;1.30;;;15.80;99.90;;;;;;5048988;28;20041;-84
2022/11/05 10:57:34;;;;;;;3.40;1.13;;;16.10;99.90;;;;;;5036537;28;20046;-84
2022/11/05 11:00:15;;;;;;;4.43;1.10;;;16.50;99.90;;;;;;5029684;28;20123;-84
2022/11/05 11:02:42;;;;;;;1.92;1.08;;;;;;;;;;5051822;28;20039;-84
2022/11/05 11:05:10;;;;;;;3.22;1.30;;;19.40;99.90;;;;;;5052855;28;20386;-85
2022/11/05 11:07:36;;;;;;;2.38;0.85;;;20.10;99.90;;;;;;5045725;28;20045;-84
2022/11/05 11:10:03;;;;;;;0.65;0.60;;;20.40;99.90;;;;;;5043678;28;20509;-84
2022/11/05 11:12:41;;;;;;;2.67;0.90;;;20.40;99.90;;;;;;5039286;28;20043;-84
2022/11/05 11:15:14;;;;;;;2.30;1.17;;;20.20;99.50;;;;;;5046318;28;20486;-84
2022/11/05 11:17:40;;;;;;;2.22;1.00;;;20.20;99.90;;;;;;5053805;28;20106;-86
2022/11/05 11:20:31;;;;;;;3.90;1.20;;;20.00;99.90;;;;;;5026597;28;20041;-85
2022/11/05 11:23:02;;;;;;;1.08;0.80;;;19.80;99.90;;;;;;5040330;28;20037;-84
2022/11/05 11:25:51;;;;;;;2.33;0.80;;;19.40;99.70;;;;;;5072169;28;20036;-82
2022/11/05 11:28:42;;;;;;;1.63;0.88;;;18.60;99.90;;;;;;5062148;22;20110;-78
2022/11/05 11:31:19;;;;;;;1.92;1.02;;;17.80;99.90;;;;;;5051774;28;20564;-78
2022/11/05 11:33:49;;;;;;;1.75;0.75;;;16.90;99.90;;;;;;5052733;28;20045;-78
2022/11/05 11:36:18;;;;;;;2.25;0.85;;;16.30;99.90;;;;;;5050978;28;20037;-78
2022/11/05 11:38:45;;;;;;;1.30;0.70;;;15.30;99.90;;;;;;5030734;28;20489;-78
2022/11/05 11:41:28;;;;;;;1.10;0.55;;;14.80;99.90;;;;;;5053103;28;20041;-79
2022/11/05 11:44:00;;;;;;;0.95;0.68;;;14.30;99.90;;;;;;5051799;28;20079;-79
2022/11/05 11:46:31;;;;;;;1.50;0.55;;;13.80;99.90;;;;;;5048476;28;20098;-79
2022/11/05 11:48:57;;;;;;;1.42;0.60;;;13.50;99.90;;;;;;5051865;28;20048;-79
2022/11/05 11:51:39;;;;;;;2.22;0.90;;;13.20;99.90;;;;;;5050109;28;20048;-79
2022/11/05 11:54:16;;;;;;;2.30;0.65;;;13.00;99.90;;;;;;5059188;28;20111;-79
2022/11/05 11:56:46;;;;;;;1.92;0.98;;;12.80;99.90;;;;;;5051110;28;20045;-77
2022/11/05 11:59:25;;;;;;;1.15;0.90;;;12.70;99.90;;;;;;5034103;28;20037;-77
2022/11/05 12:02:05;;;;;;;1.00;0.57;;;12.50;99.90;;;;;;5035664;28;20244;-77
2022/11/05 12:04:55;;;;;;;1.80;0.77;;;12.40;99.90;;;;;;5036109;28;20148;-77
2022/11/05 12:07:32;;;;;;;3.63;0.63;;;12.20;99.90;;;;;;5044258;28;20045;-77
2022/11/05 12:10:23;;;;;;;1.60;0.70;;;12.10;99.90;;;;;;5047952;28;20041;-77
2022/11/05 12:13:06;;;;;;;1.02;0.55;;;11.90;99.90;;;;;;5018789;28;21210;-77
2022/11/05 12:15:54;;;;;;;1.23;0.68;;;11.80;99.90;;;;;;5051082;28;20457;-83
2022/11/05 12:18:28;;;;;;;0.93;0.40;;;11.60;99.90;;;;;;5052444;28;20056;-83
2022/11/05 12:21:03;;;;;;;2.38;0.80;;;11.60;99.90;;;;;;5044078;28;20391;-83
2022/11/05 12:23:46;;;;;;;1.20;0.80;;;11.50;99.90;;;;;;5051779;28;20487;-83
2022/11/05 12:26:22;;;;;;;1.10;0.63;;;11.40;99.90;;;;;;5030278;28;20107;-83
2022/11/05 12:29:03;;;;;;;1.20;1.05;;;11.30;99.90;;;;;;5049533;28;20132;-82
2022/11/05 12:31:47;;;;;;;1.85;1.35;;;11.20;99.90;;;;;;5028421;28;20136;-83
2022/11/05 12:34:42;;;;;;;4.03;1.10;;;11.10;99.90;;;;;;5051553;28;20106;-83
2022/11/05 12:37:30;;;;;;;4.40;2.33;;;11.00;99.90;;;;;;5051499;28;20048;-83
2022/11/05 12:39:55;;;;;;;4.95;1.40;;;10.90;99.90;;;;;;5051119;28;20039;-83
2022/11/05 12:42:47;;;;;;;2.75;1.17;;;11.10;99.90;;;;;;5035130;28;20036;-83
2022/11/05 12:45:22;;;;;;;2.53;1.70;;;10.90;99.90;;;;;;5035153;28;20186;-83
2022/11/05 12:48:07;;;;;;;2.70;1.20;;;10.90;99.90;;;;;;5034346;28;20045;-79
2022/11/05 12:50:43;;;;;;;0.88;0.65;;;11.00;99.90;;;;;;5034893;28;20131;-79
2022/11/05 12:53:35;;;;;;;3.75;0.82;;;11.20;99.90;;;;;;5051037;28;20040;-79
2022/11/05 12:56:09;;;;;;;2.63;0.68;;;11.30;99.90;;;;;;5040454;28;20496;-79
2022/11/05 12:59:13;;;;;;;3.95;1.17;;;11.40;99.90;;;;;;5051750;28;20561;-79
2022/11/05 13:01:44;;;;;;;1.55;0.80;;;11.50;99.90;;;;;;5014034;28;20048;-79
2022/11/05 13:04:37;;;;;;;1.85;0.82;;;11.70;99.90;;;;;;5051305;28;20479;-83
2022/11/05 13:07:06;;;;;;;1.83;1.20;;;11.90;99.90;;;;;;5047290;28;20041;-83
2022/11/05 13:09:40;;;;;;;4.68;1.83;;;12.10;99.90;;;;;;5050129;28;20052;-83
2022/11/05 13:12:11;;;;;;;5.75;1.83;;;12.20;99.90;;;;;;5049448;28;20067;-83
2022/11/05 13:14:58;;;;;;;3.08;1.70;;;12.30;99.90;;;;;;5050744;28;20040;-83
2022/11/05 13:17:27;;;;;;;;;;;12.40;99.90;;;;;;5051700;28;20053;-83
2022/11/05 13:20:13;;;;;;;2.97;1.25;;;12.40;99.90;;;;;;5026142;28;19917;-83
2022/11/05 13:22:47;;;;;;;3.92;1.35;;;12.40;99.90;;;;;;5049595;28;20048;-78
2022/11/05 13:25:20;;;;;;;4.70;1.67;;;12.30;99.90;;;;;;5050883;28;20040;-78
2022/11/05 13:27:48;;;;;;;2.13;1.23;;;12.30;99.90;;;;;;5051142;28;20061;-78
2022/11/05 13:30:21;;;;;;;6.15;2.42;;;12.30;99.90;;;;;;5036676;28;20083;-78
2022/11/05 13:33:13;;;;;;;2.92;1.55;;;12.30;99.90;;;;;;5040159;28;20085;-78
2022/11/05 13:38:57;;;;;;;5.07;1.90;;;12.40;99.90;;;;;;5036764;28;20287;-78
2022/11/05 13:39:01;;;;;;;5.18;1.70;;;12.40;99.90;;;;;;5045135;28;20132;-83
2022/11/05 13:41:48;;;;;;;4.72;1.90;;;12.40;99.90;;;;;;5054562;28;20036;-83
2022/11/05 13:44:41;;;;;;;6.45;2.25;;;12.40;99.90;;;;;;5038524;28;20033;-84
2022/11/05 13:47:26;;;;;;;3.92;1.58;;;12.30;99.90;;;;;;5067125;28;20132;-84
2022/11/05 13:50:10;;;;;;;3.42;2.42;;;12.20;99.90;;;;;;5052106;28;20045;-84
2022/11/05 13:53:03;;;;;;;4.28;2.28;;;12.10;99.90;;;;;;5046501;28;20041;-84
2022/11/05 13:56:08;;;;;;;4.10;1.85;;;12.10;99.90;;;;;;5037575;28;20049;-80